Time;durP1;ratioP1;P1;durP2;ratioP2;P2;SDS_P1;SDS_P2;PMS_P1;PMS_P2;Temp;Humidity;BMP_temperature;BMP_pressure;BME280_temperature;BME280_humidity;BME280_pressure;Samples;Min_cycle;Max_cycle;Signal;HPM_P1;HPM_P2
2022/01/15 00:02:19;;;;;;;7.88;6.03;;;;;;;-1.90;100.00;97107.53;5072219;28;24542;-74
2022/01/15 00:04:45;;;;;;;8.27;6.13;;;;;;;-1.93;100.00;97112.59;5072782;28;24410;-75
2022/01/15 00:07:12;;;;;;;7.67;6.50;;;;;;;-1.93;100.00;97110.91;5072530;28;24414;-75
2022/01/15 00:09:39;;;;;;;8.68;7.20;;;;;;;-1.89;100.00;97102.50;5072432;28;24807;-74
2022/01/15 00:12:06;;;;;;;12.38;8.25;;;;;;;-1.93;100.00;97094.81;5072568;28;24423;-74
2022/01/15 00:14:37;;;;;;;10.90;9.40;;;;;;;-2.19;100.00;97085.31;5072231;28;24839;-74
2022/01/15 00:17:07;;;;;;;12.60;9.50;;;;;;;-2.16;100.00;97097.19;5072346;28;24426;-73
2022/01/15 00:19:41;;;;;;;12.18;8.77;;;;;;;-2.16;100.00;97099.72;5072600;28;24431;-74
2022/01/15 00:22:09;;;;;;;14.53;8.60;;;;;;;-2.17;100.00;97091.28;5072359;28;24462;-74
2022/01/15 00:24:35;;;;;;;11.80;8.57;;;;;;;-2.27;100.00;97095.41;5072369;28;24418;-75
2022/01/15 00:27:02;;;;;;;14.45;10.38;;;;;;;-2.49;100.00;97094.34;5072528;28;24446;-74
2022/01/15 00:29:30;;;;;;;12.50;9.50;;;;;;;-2.46;100.00;97098.63;5072624;28;24430;-74
2022/01/15 00:31:56;;;;;;;10.82;8.82;;;;;;;-2.43;100.00;97088.50;5071562;28;24514;-74
2022/01/15 00:34:24;;;;;;;11.52;8.82;;;;;;;-2.43;100.00;97080.91;5072601;28;24430;-75
2022/01/15 00:36:50;;;;;;;12.27;8.35;;;;;;;-2.31;100.00;97093.69;5072088;28;24437;-73
2022/01/15 00:39:17;;;;;;;13.38;9.63;;;;;;;-2.15;100.00;97091.28;5071884;28;24429;-73
2022/01/15 00:41:43;;;;;;;12.52;9.15;;;;;;;-2.18;100.00;97081.13;5071591;28;24983;-74
2022/01/15 00:44:10;;;;;;;13.88;9.65;;;;;;;-1.72;100.00;97085.66;5071747;28;24787;-74
2022/01/15 00:46:37;;;;;;;13.13;9.87;;;;;;;-1.91;100.00;97088.09;5071802;28;24434;-73
2022/01/15 00:49:03;;;;;;;18.08;13.10;;;;;;;-2.53;100.00;97079.94;5071869;28;24427;-74
2022/01/15 00:51:31;;;;;;;17.27;12.98;;;;;;;-2.62;100.00;97079.88;5071936;28;24449;-73
2022/01/15 00:53:57;;;;;;;19.65;12.38;;;;;;;-2.55;100.00;97074.03;5071409;28;24426;-73
2022/01/15 00:56:24;;;;;;;14.07;11.63;;;;;;;-2.54;100.00;97078.25;5071032;28;24425;-74
2022/01/15 00:58:52;;;;;;;18.35;12.18;;;;;;;-2.48;100.00;97075.78;5071628;28;24472;-74
2022/01/15 01:01:20;;;;;;;18.13;12.20;;;;;;;-2.44;100.00;97061.44;5071626;28;24481;-73
2022/01/15 01:03:47;;;;;;;21.98;13.68;;;;;;;-2.39;100.00;97066.56;5071377;28;25017;-74
2022/01/15 01:06:14;;;;;;;17.25;12.70;;;;;;;-2.32;100.00;97066.63;5071306;28;24422;-73
2022/01/15 01:08:41;;;;;;;19.88;11.38;;;;;;;-2.19;100.00;97059.94;5071492;28;24438;-73
2022/01/15 01:11:12;;;;;;;14.35;11.27;;;;;;;-2.26;100.00;97056.53;5071374;28;24434;-73
2022/01/15 01:20:03;;;;;;;17.80;11.40;;;;;;;-2.35;100.00;97064.03;5071036;28;24492;-73
2022/01/15 01:24:46;;;;;;;12.35;9.68;;;;;;;-2.42;100.00;97047.06;5071061;28;24768;-75
2022/01/15 01:27:18;;;;;;;14.57;10.43;;;;;;;-2.41;100.00;97050.44;5070593;28;25025;-75
2022/01/15 01:29:56;;;;;;;13.07;9.93;;;;;;;-2.42;100.00;97052.16;5071198;28;24510;-75
2022/01/15 01:32:43;;;;;;;13.27;10.50;;;;;;;-2.46;100.00;97052.97;5071036;28;24990;-76
2022/01/15 01:35:14;;;;;;;15.07;10.30;;;;;;;-2.54;100.00;97046.97;5070751;28;25024;-76
2022/01/15 01:37:45;;;;;;;12.52;10.05;;;;;;;-2.53;100.00;97049.50;5070599;28;24511;-76
2022/01/15 01:40:23;;;;;;;18.90;10.00;;;;;;;-2.49;100.00;97053.78;5070602;28;24435;-76
2022/01/15 01:43:05;;;;;;;12.48;9.88;;;;;;;-2.57;100.00;97044.41;5070549;28;24450;-76
2022/01/15 01:45:32;;;;;;;11.13;9.35;;;;;;;-2.65;100.00;97046.88;5071130;28;24418;-75
2022/01/15 01:47:58;;;;;;;12.73;9.63;;;;;;;-2.66;100.00;97044.34;5070230;28;24824;-75
2022/01/15 01:50:27;;;;;;;13.57;9.40;;;;;;;-2.73;100.00;97045.97;5070635;28;24429;-75
2022/01/15 01:52:55;;;;;;;9.90;8.90;;;;;;;-2.75;100.00;97045.06;5070795;28;24430;-76
2022/01/15 01:55:26;;;;;;;11.40;8.13;;;;;;;-2.77;100.00;97041.69;5070737;28;24414;-76
2022/01/15 01:57:54;;;;;;;13.02;6.95;;;;;;;-2.85;100.00;97039.09;5070607;28;24959;-76
2022/01/15 02:00:22;;;;;;;7.00;5.72;;;;;;;-2.89;100.00;97046.63;5070852;28;24799;-76
2022/01/15 02:02:50;;;;;;;8.33;6.13;;;;;;;-2.78;100.00;97042.50;5070257;28;24491;-75
2022/01/15 02:05:17;;;;;;;12.00;7.20;;;;;;;-2.66;100.00;97045.19;5070570;28;24418;-75
2022/01/15 02:07:44;;;;;;;7.38;5.90;;;;;;;-2.70;100.00;97036.69;5070338;28;24422;-76
2022/01/15 02:10:13;;;;;;;9.98;5.50;;;;;;;-2.71;100.00;97029.94;5070446;28;24423;-76
2022/01/15 02:12:42;;;;;;;9.40;5.17;;;;;;;-2.63;100.00;97027.47;5070154;28;24538;-76
2022/01/15 02:15:10;;;;;;;9.38;5.40;;;;;;;-2.64;100.00;97024.91;5070739;28;24460;-76
2022/01/15 02:17:37;;;;;;;8.27;6.50;;;;;;;-2.65;100.00;97018.13;5070214;28;24430;-76
2022/01/15 02:20:24;;;;;;;9.98;6.88;;;;;;;-2.71;100.00;97022.31;5070770;28;24434;-76
2022/01/15 02:25:42;;;;;;;10.52;7.75;;;;;;;-2.74;100.00;97031.59;5070186;28;24394;-75
2022/01/15 02:28:08;;;;;;;13.93;7.95;;;;;;;-2.81;100.00;97018.00;5070542;28;24454;-73
2022/01/15 02:30:35;;;;;;;13.10;7.63;;;;;;;-2.75;100.00;97022.25;5070040;28;25001;-73
2022/01/15 02:33:01;;;;;;;8.80;6.97;;;;;;;-2.68;100.00;97021.47;5070360;28;24411;-73
2022/01/15 02:35:29;;;;;;;10.70;7.13;;;;;;;-2.70;100.00;97018.94;5070029;28;24483;-73
2022/01/15 02:38:01;;;;;;;9.93;7.00;;;;;;;-2.74;100.00;97017.22;5069878;28;24993;-73
2022/01/15 02:40:28;;;;;;;11.88;7.53;;;;;;;-2.77;100.00;97014.66;5070084;28;24815;-73
2022/01/15 02:42:56;;;;;;;11.15;6.75;;;;;;;-2.76;100.00;97018.03;5070003;28;24442;-72
2022/01/15 02:45:25;;;;;;;8.30;7.00;;;;;;;-2.76;100.00;97012.97;5070083;28;24510;-72
2022/01/15 02:48:03;;;;;;;9.52;6.70;;;;;;;-2.79;100.00;97010.41;5069951;28;24464;-73
2022/01/15 02:50:31;;;;;;;9.55;6.40;;;;;;;-2.79;100.00;97015.47;5069902;28;24426;-73
2022/01/15 02:53:02;;;;;;;12.05;6.78;;;;;;;-2.76;100.00;97002.81;5069681;28;24960;-73
2022/01/15 02:55:29;;;;;;;10.60;6.88;;;;;;;-2.78;100.00;96991.81;5073139;28;24506;-72
2022/01/15 02:57:55;;;;;;;7.82;6.90;;;;;;;-2.83;100.00;96999.38;5073793;28;24419;-72
2022/01/15 03:00:22;;;;;;;10.40;7.22;;;;;;;-2.59;100.00;97001.28;5073465;28;25047;-72
2022/01/15 03:02:49;;;;;;;8.40;6.40;;;;;;;-2.29;100.00;96998.13;5073531;28;24455;-73
2022/01/15 03:05:15;;;;;;;7.53;5.80;;;;;;;-2.69;100.00;97007.13;5074172;28;24453;-72
2022/01/15 03:07:43;;;;;;;7.40;5.72;;;;;;;-2.86;100.00;97001.03;5073427;28;24423;-74
2022/01/15 03:10:10;;;;;;;8.18;5.63;;;;;;;-2.88;100.00;97001.03;5073690;28;24476;-72
2022/01/15 03:12:37;;;;;;;6.20;4.85;;;;;;;-2.79;100.00;96990.94;5073447;28;24431;-72
2022/01/15 03:15:05;;;;;;;8.90;5.97;;;;;;;-3.19;100.00;96995.66;5073267;28;24414;-72
2022/01/15 03:17:31;;;;;;;7.10;5.78;;;;;;;-3.21;100.00;96994.78;5073246;28;24426;-76
2022/01/15 03:19:59;;;;;;;9.47;5.53;;;;;;;-3.17;100.00;96988.06;5073467;28;24439;-75
2022/01/15 03:22:26;;;;;;;7.45;5.80;;;;;;;-3.44;100.00;96988.63;5073271;28;24470;-75
2022/01/15 03:24:53;;;;;;;10.48;6.65;;;;;;;-3.51;100.00;96990.22;5073347;28;24419;-76
2022/01/15 03:27:23;;;;;;;9.07;6.63;;;;;;;-3.37;100.00;96980.25;5073418;28;24425;-75
2022/01/15 03:29:50;;;;;;;18.60;7.28;;;;;;;-3.39;100.00;96973.47;5073120;28;24415;-75
2022/01/15 03:32:16;;;;;;;10.57;7.43;;;;;;;-3.67;100.00;96974.00;5073076;28;24426;-76
2022/01/15 03:34:43;;;;;;;11.05;7.60;;;;;;;-3.73;100.00;96976.47;5072824;28;24421;-75
2022/01/15 03:37:09;;;;;;;10.70;6.93;;;;;;;-3.52;100.00;96967.41;5072893;28;24481;-75
2022/01/15 03:39:38;;;;;;;9.88;6.72;;;;;;;-3.44;100.00;96968.38;5073048;28;24427;-76
2022/01/15 03:42:11;;;;;;;9.73;5.80;;;;;;;-3.49;100.00;96960.69;5073046;28;24438;-76
2022/01/15 03:44:39;;;;;;;6.57;4.50;;;;;;;-3.58;100.00;96968.19;5072919;28;24608;-76
2022/01/15 03:47:05;;;;;;;4.88;4.05;;;;;;;-3.63;100.00;96964.78;5072514;28;24815;-75
2022/01/15 03:49:32;;;;;;;4.80;3.38;;;;;;;-3.57;100.00;96969.88;5074325;28;24414;-76
2022/01/15 03:51:58;;;;;;;7.00;3.85;;;;;;;-3.43;100.00;96965.00;5074088;28;24977;-75
2022/01/15 03:54:25;;;;;;;4.63;3.53;;;;;;;-3.38;100.00;96965.88;5072918;28;24870;-75
2022/01/15 03:56:51;;;;;;;4.60;3.47;;;;;;;-3.28;100.00;96957.53;5072453;28;24777;-75
2022/01/15 03:59:19;;;;;;;5.80;4.38;;;;;;;-3.18;100.00;96958.50;5072649;28;24488;-76
2022/01/15 04:01:46;;;;;;;8.75;6.03;;;;;;;-3.07;100.00;96961.97;5072290;28;24437;-75
2022/01/15 04:04:12;;;;;;;8.55;6.70;;;;;;;-3.13;100.00;96953.47;5072650;28;24496;-76
2022/01/15 04:06:41;;;;;;;8.70;6.18;;;;;;;-3.14;100.00;96949.25;5073274;28;24847;-76
2022/01/15 04:09:07;;;;;;;8.60;5.72;;;;;;;-3.22;100.00;96952.56;5073638;28;24966;-75
2022/01/15 04:11:34;;;;;;;7.03;4.90;;;;;;;-3.27;100.00;96941.50;5072289;28;24971;-76
2022/01/15 04:14:01;;;;;;;6.60;4.82;;;;;;;-3.21;100.00;96943.25;5071521;28;24504;-76
2022/01/15 04:16:29;;;;;;;8.23;4.50;;;;;;;-3.06;100.00;96940.88;5082589;28;24499;-75
2022/01/15 04:18:56;;;;;;;5.35;4.60;;;;;;;-3.08;100.00;96941.69;5082048;28;24975;-75
2022/01/15 04:21:22;;;;;;;5.90;4.32;;;;;;;-3.20;100.00;96934.81;5072275;28;24441;-76
2022/01/15 04:23:48;;;;;;;5.65;4.13;;;;;;;-3.29;100.00;96932.22;5072212;28;24846;-75
2022/01/15 04:26:15;;;;;;;4.82;3.80;;;;;;;-3.57;100.00;96928.53;5071841;28;24842;-75
2022/01/15 04:28:42;;;;;;;4.97;3.77;;;;;;;-3.76;100.00;96937.59;5072159;28;24429;-76
2022/01/15 04:31:09;;;;;;;5.65;4.07;;;;;;;-3.66;100.00;96937.72;5075684;28;24959;-75
2022/01/15 04:33:39;;;;;;;5.30;4.00;;;;;;;-3.54;100.00;96933.63;5092205;28;24479;-75
2022/01/15 04:36:07;;;;;;;6.88;4.30;;;;;;;-3.49;100.00;96932.84;5092159;28;24463;-76
2022/01/15 04:38:37;;;;;;;5.45;4.00;;;;;;;-3.37;100.00;96937.19;5092356;28;24445;-76
2022/01/15 04:41:04;;;;;;;5.93;4.50;;;;;;;-3.31;100.00;96938.94;5093483;28;24961;-75
2022/01/15 04:43:30;;;;;;;4.90;4.15;;;;;;;-3.39;100.00;96922.81;5091724;28;24446;-75
2022/01/15 04:45:57;;;;;;;7.30;4.97;;;;;;;-3.34;100.00;96929.59;5091866;28;24421;-75
2022/01/15 04:48:24;;;;;;;7.78;5.32;;;;;;;-3.35;100.00;96927.91;5084831;28;25014;-76
2022/01/15 04:50:52;;;;;;;5.35;4.65;;;;;;;-3.44;100.00;96925.31;5071636;28;24824;-75
2022/01/15 04:53:19;;;;;;;6.18;5.05;;;;;;;-3.58;100.00;96915.03;5071600;28;24423;-75
2022/01/15 04:55:45;;;;;;;6.68;5.00;;;;;;;-3.73;100.00;96932.56;5071205;28;24472;-76
2022/01/15 04:58:12;;;;;;;6.80;4.97;;;;;;;-3.22;100.00;96929.75;5071633;28;24427;-75
2022/01/15 05:00:39;;;;;;;7.80;4.13;;;;;;;-3.18;100.00;96931.47;5071464;28;24414;-75
2022/01/15 05:03:05;;;;;;;8.88;5.35;;;;;;;-3.42;100.00;96936.28;5071511;28;24457;-75
2022/01/15 05:05:32;;;;;;;8.02;5.10;;;;;;;-3.43;100.00;96937.13;5071147;28;24441;-75
2022/01/15 05:08:00;;;;;;;7.22;5.00;;;;;;;-3.46;100.00;96930.34;5071510;28;24799;-76
2022/01/15 05:10:28;;;;;;;7.72;5.03;;;;;;;-3.45;100.00;96934.59;5071689;28;24990;-76
2022/01/15 05:12:56;;;;;;;12.98;8.57;;;;;;;-3.27;100.00;96938.97;5071759;28;24426;-75
2022/01/15 05:15:23;;;;;;;9.13;6.97;;;;;;;-3.20;100.00;96937.34;5071042;28;24983;-76
2022/01/15 05:17:51;;;;;;;9.02;6.65;;;;;;;-3.45;100.00;96932.06;5070314;28;24430;-76
2022/01/15 05:20:18;;;;;;;10.30;7.22;;;;;;;-3.82;100.00;96933.34;5071312;28;24429;-75
2022/01/15 05:22:45;;;;;;;10.05;6.70;;;;;;;-3.81;100.00;96935.03;5070777;28;24434;-76
2022/01/15 05:25:14;;;;;;;11.65;6.05;;;;;;;-3.80;100.00;96934.19;5070688;28;25054;-75
2022/01/15 05:27:41;;;;;;;9.20;6.50;;;;;;;-3.73;100.00;96938.50;5071651;28;24506;-76
2022/01/15 05:30:09;;;;;;;8.60;5.95;;;;;;;-3.63;100.00;96936.03;5070918;28;24433;-75
2022/01/15 05:32:35;;;;;;;8.90;6.60;;;;;;;-3.63;100.00;96938.56;5070953;28;24438;-76
2022/01/15 05:35:02;;;;;;;9.98;6.05;;;;;;;-3.61;100.00;96935.25;5070719;28;24903;-76
2022/01/15 05:37:28;;;;;;;10.75;5.55;;;;;;;-3.52;100.00;96937.00;5070792;28;24487;-75
2022/01/15 05:39:55;;;;;;;9.90;5.77;;;;;;;-3.50;100.00;96933.66;5070643;28;24974;-76
2022/01/15 05:42:23;;;;;;;10.90;5.80;;;;;;;-3.34;100.00;96928.75;5070749;28;24418;-76
2022/01/15 05:44:50;;;;;;;7.03;4.75;;;;;;;-3.29;100.00;96927.16;5070622;28;24443;-75
2022/01/15 05:47:16;;;;;;;7.60;4.75;;;;;;;-3.37;100.00;96929.59;5070632;28;24973;-76
2022/01/15 05:49:43;;;;;;;7.32;5.55;;;;;;;-3.66;100.00;96930.13;5070801;28;24796;-76
2022/01/15 05:52:09;;;;;;;9.10;5.83;;;;;;;-3.78;100.00;96921.53;5070455;28;24419;-76
2022/01/15 05:54:36;;;;;;;9.23;5.95;;;;;;;-3.92;100.00;96934.03;5070382;28;24997;-76
2022/01/15 05:57:02;;;;;;;7.60;5.70;;;;;;;-3.78;100.00;96932.53;5070410;28;24421;-75
2022/01/15 05:59:30;;;;;;;7.18;5.22;;;;;;;-3.77;100.00;96939.28;5070485;28;24430;-76
2022/01/15 06:01:56;;;;;;;6.70;5.40;;;;;;;-3.72;100.00;96940.19;5071019;28;24422;-75
2022/01/15 06:04:23;;;;;;;8.13;5.90;;;;;;;-3.85;100.00;96935.81;5071601;28;24443;-76
2022/01/15 06:06:49;;;;;;;7.60;5.53;;;;;;;-3.90;100.00;96932.38;5070338;28;24792;-75
2022/01/15 06:09:16;;;;;;;7.47;5.70;;;;;;;-3.75;100.00;96930.00;5071677;28;24823;-75
2022/01/15 06:11:43;;;;;;;8.60;5.30;;;;;;;-3.69;100.00;96934.31;5070975;28;24427;-76
2022/01/15 06:14:10;;;;;;;7.93;4.85;;;;;;;-3.41;100.00;96933.78;5067242;28;24427;-76
2022/01/15 06:16:37;;;;;;;5.40;4.35;;;;;;;-3.53;100.00;96928.56;5059159;28;24435;-76
2022/01/15 06:19:04;;;;;;;6.75;4.78;;;;;;;-3.57;100.00;96926.84;5054376;28;24797;-76
2022/01/15 06:21:30;;;;;;;6.68;4.47;;;;;;;-3.65;100.00;96923.38;5061719;28;24431;-77
2022/01/15 06:23:57;;;;;;;6.97;4.65;;;;;;;-3.76;100.00;96919.88;5062747;28;24461;-76
2022/01/15 06:26:24;;;;;;;7.85;5.20;;;;;;;-3.78;100.00;96922.41;5056985;28;24442;-77
2022/01/15 06:28:50;;;;;;;6.68;4.55;;;;;;;-3.75;100.00;96924.94;5057586;28;24485;-78
2022/01/15 06:31:17;;;;;;;7.43;4.38;;;;;;;-3.74;100.00;96923.28;5066220;28;24434;-78
2022/01/15 06:33:44;;;;;;;6.40;4.80;;;;;;;-3.71;100.00;96924.19;5065980;28;24434;-76
2022/01/15 06:36:11;;;;;;;6.20;4.22;;;;;;;-3.75;100.00;96926.63;5065531;28;24446;-76
2022/01/15 06:38:37;;;;;;;8.27;4.53;;;;;;;-3.68;100.00;96930.94;5063792;28;24430;-76
2022/01/15 06:41:04;;;;;;;6.13;4.40;;;;;;;-3.73;100.00;96924.97;5063930;28;24463;-77
2022/01/15 06:43:30;;;;;;;5.83;4.13;;;;;;;-3.76;100.00;96922.41;5070927;28;24504;-77
2022/01/15 06:45:57;;;;;;;5.57;4.00;;;;;;;-3.71;100.00;96923.31;5062753;28;24427;-77
2022/01/15 06:48:24;;;;;;;6.18;4.20;;;;;;;-3.84;100.00;96931.59;5071378;28;24427;-77
2022/01/15 06:50:52;;;;;;;6.55;4.32;;;;;;;-4.07;100.00;96927.13;5059005;28;24439;-77
2022/01/15 06:53:18;;;;;;;6.72;4.90;;;;;;;-4.24;100.00;96931.94;5065548;28;24789;-77
2022/01/15 06:55:49;;;;;;;6.45;4.65;;;;;;;-4.06;100.00;96922.91;5070522;28;24797;-77
2022/01/15 06:58:15;;;;;;;7.75;5.40;;;;;;;-4.05;100.00;96927.13;5061708;28;24474;-77
2022/01/15 07:00:42;;;;;;;8.45;5.93;;;;;;;-3.99;100.00;96922.16;5053480;28;24426;-77
2022/01/15 07:03:08;;;;;;;7.82;5.60;;;;;;;-3.91;100.00;96918.88;5053407;28;24427;-77
2022/01/15 07:05:35;;;;;;;8.63;5.18;;;;;;;-3.92;100.00;96921.38;5055525;28;24443;-77
2022/01/15 07:08:03;;;;;;;9.35;5.65;;;;;;;-3.96;100.00;96912.06;5053972;28;24438;-76
2022/01/15 07:10:29;;;;;;;7.32;5.65;;;;;;;-4.01;100.00;96906.06;5055388;28;24415;-77
2022/01/15 07:12:55;;;;;;;7.93;5.85;;;;;;;-4.05;100.00;96900.13;5056027;28;24840;-77
2022/01/15 07:15:22;;;;;;;10.32;7.07;;;;;;;-4.00;100.00;96905.28;5056074;28;24836;-77
2022/01/15 07:17:49;;;;;;;10.63;7.43;;;;;;;-3.95;100.00;96904.47;5055783;28;24439;-76
2022/01/15 07:20:20;;;;;;;7.65;5.75;;;;;;;-3.74;100.00;96897.97;5053918;28;24427;-77
2022/01/15 07:22:47;;;;;;;10.88;5.53;;;;;;;-3.82;100.00;96897.03;5055012;28;24427;-77
2022/01/15 07:25:15;;;;;;;8.27;5.35;;;;;;;-3.86;100.00;96902.88;5054683;28;24505;-77
2022/01/15 07:27:42;;;;;;;5.88;4.50;;;;;;;-3.77;100.00;96901.31;5054826;28;24419;-77
2022/01/15 07:30:10;;;;;;;5.90;4.93;;;;;;;-3.85;100.00;96897.00;5053536;28;24490;-77
2022/01/15 07:32:37;;;;;;;8.30;5.20;;;;;;;-3.90;100.00;96902.84;5052813;28;25171;-77
2022/01/15 07:35:04;;;;;;;6.45;5.00;;;;;;;-3.89;100.00;96901.19;5054527;28;24435;-77
2022/01/15 07:37:31;;;;;;;6.78;5.70;;;;;;;-4.04;100.00;96898.44;5054610;28;24437;-76
2022/01/15 07:39:59;;;;;;;8.93;6.80;;;;;;;-4.25;100.00;96904.09;5070493;28;24439;-76
2022/01/15 07:42:28;;;;;;;11.23;6.90;;;;;;;-4.13;100.00;96905.09;5073221;28;24475;-76
2022/01/15 07:44:55;;;;;;;7.40;6.38;;;;;;;-3.91;100.00;96905.38;5068807;28;24451;-77
2022/01/15 07:47:21;;;;;;;11.25;6.57;;;;;;;-3.72;100.00;96901.34;5075021;28;24431;-78
2022/01/15 07:49:47;;;;;;;7.57;6.35;;;;;;;-3.52;100.00;96899.91;5074588;28;24434;-76
2022/01/15 07:52:14;;;;;;;8.57;6.93;;;;;;;-3.32;100.00;96902.63;5074544;28;24429;-77
2022/01/15 07:54:41;;;;;;;11.82;7.72;;;;;;;-3.21;100.00;96900.19;5074551;28;24423;-77
2022/01/15 07:57:07;;;;;;;14.40;8.48;;;;;;;-3.04;100.00;96898.66;5074196;28;24426;-77
2022/01/15 07:59:35;;;;;;;12.70;9.40;;;;;;;-2.92;100.00;96898.75;5075058;28;24498;-77
2022/01/15 08:02:02;;;;;;;16.00;10.82;;;;;;;-2.76;100.00;96903.94;5074759;28;24513;-75
2022/01/15 08:04:28;;;;;;;13.95;10.95;;;;;;;-2.61;100.00;96893.91;5074060;28;24795;-75
2022/01/15 08:06:55;;;;;;;21.13;11.15;;;;;;;-2.51;100.00;96895.66;5071288;28;24430;-76
2022/01/15 08:09:21;;;;;;;16.63;9.52;;;;;;;-2.33;100.00;96896.63;5091297;28;24830;-76
2022/01/15 08:11:48;;;;;;;14.00;10.57;;;;;;;-2.12;100.00;96904.31;5082607;28;24481;-77
2022/01/15 08:14:14;;;;;;;13.55;10.65;;;;;;;-2.13;100.00;96896.72;5069565;28;24435;-75
2022/01/15 08:16:42;;;;;;;13.38;10.18;;;;;;;-2.10;100.00;96895.03;5052025;28;24422;-77
2022/01/15 08:19:09;;;;;;;12.50;9.60;;;;;;;-2.04;100.00;96892.53;5052384;28;24418;-75
2022/01/15 08:21:35;;;;;;;12.75;9.18;;;;;;;-2.03;100.00;96889.16;5052212;28;24415;-76
2022/01/15 08:24:02;;;;;;;11.35;10.00;;;;;;;-1.98;100.00;96889.16;5051657;28;24863;-76
2022/01/15 08:26:28;;;;;;;12.80;9.70;;;;;;;-1.91;100.00;96893.41;5051840;28;24789;-76
2022/01/15 08:28:56;;;;;;;14.07;9.50;;;;;;;-1.93;100.00;96894.25;5051797;28;24419;-75
2022/01/15 08:31:22;;;;;;;14.07;9.75;;;;;;;-1.94;100.00;96890.88;5051978;28;24427;-76
2022/01/15 08:33:50;;;;;;;11.15;8.30;;;;;;;-1.80;100.00;96885.84;5052150;28;24469;-77
2022/01/15 08:36:17;;;;;;;8.55;6.53;;;;;;;-1.74;100.00;96883.34;5052216;28;24422;-75
2022/01/15 08:38:44;;;;;;;8.02;6.30;;;;;;;-1.67;100.00;96889.25;5067809;28;24441;-76
2022/01/15 08:41:12;;;;;;;8.02;6.00;;;;;;;-1.62;100.00;96885.91;5071877;28;24422;-76
2022/01/15 08:43:39;;;;;;;8.17;6.50;;;;;;;-1.77;100.00;96886.72;5071813;28;24784;-76
2022/01/15 08:46:05;;;;;;;7.25;6.22;;;;;;;-2.02;100.00;96882.38;5052290;28;25011;-76
2022/01/15 08:48:32;;;;;;;8.13;6.70;;;;;;;-2.18;100.00;96886.53;5051705;28;24434;-76
2022/01/15 08:51:00;;;;;;;8.23;6.45;;;;;;;-2.18;100.00;96888.22;5051214;28;24809;-76
2022/01/15 08:53:26;;;;;;;8.93;6.17;;;;;;;-2.16;100.00;96882.31;5058642;28;24438;-76
2022/01/15 08:55:54;;;;;;;7.72;6.75;;;;;;;-2.16;100.00;96881.47;5071395;28;24418;-76
2022/01/15 08:58:20;;;;;;;8.57;6.40;;;;;;;-2.01;100.00;96872.22;5071302;28;24867;-76
2022/01/15 09:00:47;;;;;;;11.80;6.88;;;;;;;-1.79;100.00;96878.22;5071352;28;24480;-76
2022/01/15 09:03:14;;;;;;;9.02;7.05;;;;;;;-1.72;100.00;96887.56;5071168;28;24423;-76
2022/01/15 09:05:41;;;;;;;9.25;6.90;;;;;;;-1.58;100.00;96871.53;5070919;28;24488;-76
2022/01/15 09:08:09;;;;;;;33.03;8.65;;;;;;;-1.44;100.00;96880.03;5071000;28;24431;-76
2022/01/15 09:10:42;;;;;;;23.80;6.93;;;;;;;-1.13;100.00;96875.81;5071329;28;24414;-75
2022/01/15 09:13:10;;;;;;;11.77;7.35;;;;;;;-1.11;100.00;96875.81;5071114;28;24952;-76
2022/01/15 09:15:36;;;;;;;12.32;6.85;;;;;;;-1.08;100.00;96875.81;5070321;28;24431;-76
2022/01/15 09:18:03;;;;;;;13.55;7.88;;;;;;;-0.82;100.00;96876.66;5071008;28;24422;-76
2022/01/15 09:20:29;;;;;;;14.05;8.02;;;;;;;-0.66;100.00;96864.78;5070741;28;24489;-76
2022/01/15 09:22:57;;;;;;;13.20;8.48;;;;;;;-0.53;100.00;96869.00;5070641;28;24439;-75
2022/01/15 09:25:26;;;;;;;13.35;9.13;;;;;;;-0.30;100.00;96863.88;5070062;28;24504;-76
2022/01/15 09:30:38;;;;;;;12.77;8.52;;;;;;;0.57;100.00;96865.19;5058623;28;24437;-76
2022/01/15 09:33:06;;;;;;;8.83;7.93;;;;;;;0.86;100.00;96859.03;5070417;28;25002;-75
2022/01/15 09:35:33;;;;;;;11.68;9.02;;;;;;;0.94;100.00;96862.38;5065313;28;24526;-75
2022/01/15 09:38:00;;;;;;;13.80;9.88;;;;;;;1.19;100.00;96852.84;5070067;28;24439;-75
2022/01/15 09:40:28;;;;;;;15.13;10.45;;;;;;;1.01;100.00;96848.72;5070861;28;24509;-75
2022/01/15 09:42:56;;;;;;;12.18;8.65;;;;;;;0.85;100.00;96852.22;5070587;28;24423;-75
2022/01/15 09:45:25;;;;;;;9.88;8.30;;;;;;;1.14;100.00;96855.41;5057908;28;24454;-76
2022/01/15 09:47:56;;;;;;;10.65;8.35;;;;;;;1.27;100.00;96850.22;5070050;28;24437;-75
2022/01/15 09:50:24;;;;;;;13.10;8.55;;;;;;;1.54;100.00;96847.38;5070612;28;24437;-75
2022/01/15 09:52:51;;;;;;;10.02;8.10;;;;;;;1.40;100.00;96842.41;5070493;28;24986;-76
2022/01/15 09:55:20;;;;;;;11.43;8.57;;;;;;;1.50;100.00;96842.34;5069914;28;24434;-76
2022/01/15 09:57:49;;;;;;;11.98;9.30;;;;;;;1.32;100.00;96845.91;5070454;28;24559;-76
2022/01/15 10:00:18;;;;;;;10.35;9.13;;;;;;;1.29;100.00;96843.38;5069859;28;24572;-75
2022/01/15 10:02:46;;;;;;;12.90;9.90;;;;;;;1.29;100.00;96848.47;5069963;28;24753;-76
2022/01/15 10:05:15;;;;;;;10.48;9.43;;;;;;;1.43;100.00;96839.81;5074973;28;24454;-78
2022/01/15 10:07:55;;;;;;;14.18;9.88;;;;;;;1.49;100.00;96835.53;5062639;28;24423;-76
2022/01/15 10:10:22;;;;;;;14.48;10.05;;;;;;;1.84;100.00;96832.59;5051528;28;24515;-75
2022/01/15 10:12:51;;;;;;;13.25;9.55;;;;;;;2.08;100.00;96834.03;5058692;28;24971;-76
2022/01/15 10:15:18;;;;;;;12.50;9.05;;;;;;;2.18;100.00;96833.03;5064136;28;24498;-76
2022/01/15 10:17:45;;;;;;;10.53;9.43;;;;;;;2.23;100.00;96831.28;5070884;28;24443;-75
2022/01/15 10:20:13;;;;;;;14.27;9.95;;;;;;;2.36;100.00;96819.16;5070319;28;24418;-75
2022/01/15 10:22:42;;;;;;;12.93;10.35;;;;;;;2.51;100.00;96824.06;5069497;28;24446;-75
2022/01/15 10:25:13;;;;;;;10.90;9.55;;;;;;;2.48;100.00;96820.69;5069360;28;24919;-76
2022/01/15 10:27:46;;;;;;;13.07;9.93;;;;;;;2.69;100.00;96817.84;5068220;28;25087;-75
2022/01/15 10:30:16;;;;;;;18.45;9.80;;;;;;;2.84;100.00;96812.47;5069996;28;24541;-75
2022/01/15 10:32:54;;;;;;;15.07;10.30;;;;;;;2.81;100.00;96806.56;5066284;28;24445;-73
2022/01/15 10:35:22;;;;;;;12.18;10.50;;;;;;;3.12;100.00;96800.09;5075309;28;24430;-72
2022/01/15 10:37:52;;;;;;;11.48;10.23;;;;;;;3.24;100.00;96804.16;5078458;28;24476;-73
2022/01/15 10:40:22;;;;;;;13.32;10.50;;;;;;;3.33;100.00;96785.22;5069042;28;24431;-73
2022/01/15 10:42:54;;;;;;;14.20;9.97;;;;;;;3.31;100.00;96790.38;5069576;28;24967;-73
2022/01/15 10:45:24;;;;;;;14.95;9.75;;;;;;;3.45;100.00;96790.13;5069122;28;24538;-73
2022/01/15 10:47:53;;;;;;;13.82;9.38;;;;;;;3.47;100.00;96785.81;5069331;28;24414;-73
2022/01/15 10:50:25;;;;;;;11.00;8.52;;;;;;;3.54;99.14;96787.38;5069709;28;24525;-73
2022/01/15 10:52:52;;;;;;;11.60;9.57;;;;;;;3.47;100.00;96784.97;5069288;28;24496;-73
2022/01/15 10:55:25;;;;;;;10.55;8.07;;;;;;;3.77;100.00;96775.84;5069147;28;24422;-73
2022/01/15 10:57:56;;;;;;;11.70;8.73;;;;;;;3.66;98.74;96773.47;5069076;28;24784;-73
2022/01/15 11:00:27;;;;;;;13.00;9.40;;;;;;;3.60;99.53;96768.50;5069042;28;24434;-73
2022/01/15 11:02:55;;;;;;;10.35;7.65;;;;;;;3.74;98.88;96757.97;5069332;28;24906;-73
2022/01/15 11:05:34;;;;;;;11.18;7.70;;;;;;;3.73;97.14;96758.84;5069081;28;24449;-73
2022/01/15 11:08:16;;;;;;;10.25;8.05;;;;;;;3.93;96.01;96756.72;5069651;28;24433;-73
2022/01/15 11:10:45;;;;;;;11.70;7.65;;;;;;;3.81;92.80;96759.53;5069012;28;24423;-73
2022/01/15 11:13:14;;;;;;;10.32;7.30;;;;;;;3.70;92.93;96754.63;5069375;28;24438;-73
2022/01/15 11:15:44;;;;;;;7.07;6.38;;;;;;;3.62;90.49;96756.50;5070623;28;24438;-73
2022/01/15 11:18:15;;;;;;;8.73;7.55;;;;;;;3.57;93.53;96754.03;5072935;28;24851;-76
2022/01/15 11:20:46;;;;;;;10.27;7.50;;;;;;;3.41;89.70;96760.28;5072846;28;24522;-76
2022/01/15 11:23:14;;;;;;;9.48;6.78;;;;;;;3.33;91.07;96760.44;5072391;28;24446;-75
2022/01/15 11:25:41;;;;;;;8.45;6.93;;;;;;;3.28;90.16;96749.44;5072009;28;24473;-75
2022/01/15 11:28:08;;;;;;;9.38;6.40;;;;;;;3.24;87.73;96744.41;5072383;28;24839;-75
2022/01/15 11:30:36;;;;;;;8.95;6.18;;;;;;;3.26;86.16;96743.50;5072769;28;24434;-75
2022/01/15 11:33:04;;;;;;;6.50;5.40;;;;;;;3.29;86.98;96738.34;5071431;28;24488;-75
2022/01/15 11:35:40;;;;;;;9.10;6.45;;;;;;;3.32;87.86;96740.00;5053170;28;24458;-75
2022/01/15 11:38:07;;;;;;;9.40;5.90;;;;;;;3.44;85.52;96728.69;5052946;28;24414;-75
2022/01/15 11:40:46;;;;;;;12.52;6.82;;;;;;;3.40;87.05;96731.28;5053041;28;24423;-75